createdAt,value
2018-10-17T00:00:42.887Z,98074.16
2018-10-17T00:03:12.298Z,98083.86
2018-10-17T00:05:41.770Z,98086.27
2018-10-17T00:08:11.238Z,98081.43
2018-10-17T00:10:40.449Z,98084.73
2018-10-17T00:13:09.836Z,98087.80
2018-10-17T00:15:39.210Z,98087.77
2018-10-17T00:18:08.485Z,98092.61
2018-10-17T00:20:37.849Z,98086.03
2018-10-17T00:23:07.261Z,98086.46
2018-10-17T00:25:36.561Z,98077.14
2018-10-17T00:28:05.858Z,98080.66
2018-10-17T00:30:35.161Z,98074.10
2018-10-17T00:33:04.506Z,98080.50
2018-10-17T00:35:33.818Z,98068.52
2018-10-17T00:38:03.119Z,98075.31
2018-10-17T00:40:32.460Z,98072.55
2018-10-17T00:43:01.742Z,98067.03
2018-10-17T00:45:31.023Z,98065.98
2018-10-17T00:48:00.318Z,98065.50
2018-10-17T00:50:29.634Z,98068.62
2018-10-17T00:52:59.009Z,98066.09
2018-10-17T00:55:28.238Z,98065.20
2018-10-17T00:57:57.631Z,98062.80
2018-10-17T01:00:27.063Z,98067.53
2018-10-17T01:02:56.494Z,98066.52
2018-10-17T01:05:25.987Z,98054.62
2018-10-17T01:07:55.487Z,98065.89
2018-10-17T01:10:24.964Z,98063.58
2018-10-17T01:12:54.514Z,98060.66
2018-10-17T01:15:24.282Z,98061.62
2018-10-17T01:17:53.813Z,98057.30
2018-10-17T01:20:23.394Z,98060.48
2018-10-17T01:22:53.027Z,98056.71
2018-10-17T01:25:22.748Z,98055.68
2018-10-17T01:27:52.270Z,98053.02
2018-10-17T01:30:21.794Z,98052.13
2018-10-17T01:32:51.202Z,98052.45
2018-10-17T01:35:20.562Z,98046.67
2018-10-17T01:37:49.880Z,98043.05
2018-10-17T01:40:19.218Z,98046.44
2018-10-17T01:42:48.577Z,98042.69
2018-10-17T01:45:17.872Z,98039.06
2018-10-17T01:47:47.172Z,98041.24
2018-10-17T01:50:16.494Z,98042.51
2018-10-17T01:52:45.760Z,98041.36
2018-10-17T01:55:15.167Z,98032.93
2018-10-17T01:57:44.370Z,98038.98
2018-10-17T02:00:13.667Z,98029.05
2018-10-17T02:02:42.971Z,98029.81
2018-10-17T02:05:12.426Z,98036.81
2018-10-17T02:07:41.693Z,98029.14
2018-10-17T02:10:11.057Z,98028.19
2018-10-17T02:12:40.479Z,98030.80
2018-10-17T02:15:09.830Z,98029.88
2018-10-17T02:17:39.114Z,98030.73
2018-10-17T02:20:08.389Z,98033.91
2018-10-17T02:22:37.662Z,98031.42
2018-10-17T02:25:07.519Z,98031.33
2018-10-17T02:27:36.782Z,98028.13
2018-10-17T02:30:06.324Z,98025.67
2018-10-17T02:32:35.576Z,98031.72
2018-10-17T02:35:10.120Z,98028.38
2018-10-17T02:37:39.406Z,98027.56
2018-10-17T02:40:08.676Z,98030.98
2018-10-17T02:42:37.943Z,98023.37
2018-10-17T02:45:08.974Z,98019.01
2018-10-17T02:47:38.248Z,98023.24
2018-10-17T02:50:09.498Z,98017.29
2018-10-17T02:52:40.156Z,98009.55
2018-10-17T02:55:09.879Z,98011.76
2018-10-17T02:57:39.390Z,98014.63
2018-10-17T03:00:09.667Z,98015.37
2018-10-17T03:02:39.045Z,98011.12
2018-10-17T03:05:08.365Z,98018.58
2018-10-17T03:07:37.661Z,98016.95
2018-10-17T03:10:06.978Z,98016.87
2018-10-17T03:12:36.279Z,98020.84
2018-10-17T03:15:06.298Z,98025.16
2018-10-17T03:17:35.574Z,98029.72
2018-10-17T03:20:06.083Z,98023.81
2018-10-17T03:22:35.345Z,98030.62
2018-10-17T03:25:04.822Z,98030.92
2018-10-17T03:27:34.132Z,98036.80
2018-10-17T03:30:03.547Z,98040.42
2018-10-17T03:32:32.828Z,98040.45
2018-10-17T03:35:02.202Z,98040.72
2018-10-17T03:37:31.373Z,98038.62
2018-10-17T03:40:00.653Z,98032.81
2018-10-17T03:42:29.925Z,98031.89
2018-10-17T03:44:59.250Z,98034.22
2018-10-17T03:47:28.569Z,98033.81
2018-10-17T03:49:58.033Z,98037.53
2018-10-17T03:52:27.310Z,98036.80
2018-10-17T03:54:56.869Z,98044.34
2018-10-17T03:57:26.367Z,98037.88
2018-10-17T03:59:55.873Z,98033.59
2018-10-17T04:02:25.307Z,98034.92
2018-10-17T04:04:54.936Z,98030.95
2018-10-17T04:07:24.502Z,98038.75
2018-10-17T04:09:53.977Z,98040.69
2018-10-17T04:12:23.440Z,98033.55
2018-10-17T04:14:52.877Z,98040.48
2018-10-17T04:17:22.380Z,98041.92
2018-10-17T04:19:52.159Z,98036.92
2018-10-17T04:22:21.677Z,98037.36
2018-10-17T04:24:51.051Z,98038.26
2018-10-17T04:27:20.399Z,98040.11
2018-10-17T04:29:49.709Z,98043.19
2018-10-17T04:32:19.030Z,98046.65
2018-10-17T04:34:48.310Z,98046.29
2018-10-17T04:37:17.666Z,98048.05
2018-10-17T04:39:46.978Z,98047.19
2018-10-17T04:42:16.285Z,98048.66
2018-10-17T04:44:45.609Z,98045.95
2018-10-17T04:47:14.993Z,98046.80
2018-10-17T04:49:44.221Z,98045.28
2018-10-17T04:52:13.554Z,98045.17
2018-10-17T04:54:42.858Z,98036.86
2018-10-17T04:57:12.302Z,98042.71
2018-10-17T04:59:41.670Z,98042.91
2018-10-17T05:02:11.271Z,98041.59
2018-10-17T05:04:40.911Z,98042.77
2018-10-17T05:07:10.113Z,98047.35
2018-10-17T05:09:40.004Z,98048.23
2018-10-17T05:12:09.441Z,98039.81
2018-10-17T05:14:39.122Z,98052.14
2018-10-17T05:17:08.593Z,98044.25
2018-10-17T05:19:38.056Z,98043.42
2018-10-17T05:22:08.003Z,98038.08
2018-10-17T05:24:37.345Z,98041.50
2018-10-17T05:27:07.155Z,98045.48
2018-10-17T05:29:36.606Z,98045.12
2018-10-17T05:32:06.113Z,98045.48
2018-10-17T05:34:35.420Z,98044.76
2018-10-17T05:37:05.007Z,98053.31
2018-10-17T05:39:34.346Z,98056.48
2018-10-17T05:42:03.646Z,98061.84
2018-10-17T05:44:33.050Z,98059.13
2018-10-17T05:47:03.279Z,98065.61
2018-10-17T05:49:32.614Z,98060.88
2018-10-17T05:52:01.925Z,98061.54
2018-10-17T05:54:31.200Z,98053.83
2018-10-17T05:57:00.526Z,98058.83
2018-10-17T05:59:31.007Z,98064.95
2018-10-17T06:02:01.196Z,98064.07
2018-10-17T06:04:30.422Z,98067.89
2018-10-17T06:06:59.863Z,98070.97
2018-10-17T06:09:29.119Z,98062.20
2018-10-17T06:11:58.566Z,98073.83
2018-10-17T06:14:28.186Z,98068.19
2018-10-17T06:16:57.831Z,98073.95
2018-10-17T06:19:27.477Z,98076.48
2018-10-17T06:21:56.988Z,98072.63
2018-10-17T06:24:26.495Z,98071.92
2018-10-17T06:26:56.155Z,98072.67
2018-10-17T06:29:26.018Z,98071.70
2018-10-17T06:31:55.728Z,98073.83
2018-10-17T06:34:25.700Z,98076.67
2018-10-17T06:36:55.526Z,98073.92
2018-10-17T06:39:25.196Z,98081.15
2018-10-17T06:41:55.074Z,98081.86
2018-10-17T06:44:25.093Z,98078.74
2018-10-17T06:46:55.040Z,98075.22
2018-10-17T06:49:24.958Z,98083.19
2018-10-17T06:51:55.007Z,98092.62
2018-10-17T06:54:25.234Z,98088.53
2018-10-17T06:56:55.144Z,98087.34
2018-10-17T06:59:25.181Z,98079.96
2018-10-17T07:01:55.183Z,98090.34
2018-10-17T07:04:25.186Z,98084.23
2018-10-17T07:06:55.531Z,98081.57
2018-10-17T07:09:25.729Z,98081.61
2018-10-17T07:11:55.930Z,98074.09
2018-10-17T07:14:28.400Z,98068.22
2018-10-17T07:16:58.892Z,98075.41
2018-10-17T07:19:28.606Z,98071.48
2018-10-17T07:21:58.852Z,98069.45
2018-10-17T07:24:28.694Z,98076.09
2018-10-17T07:26:58.337Z,98074.74
2018-10-17T07:29:28.252Z,98076.80
2018-10-17T07:31:57.910Z,98074.92
2018-10-17T07:34:27.602Z,98072.37
2018-10-17T07:36:57.230Z,98073.11
2018-10-17T07:39:26.926Z,98074.36
2018-10-17T07:41:56.642Z,98077.71
2018-10-17T07:44:26.622Z,98083.23
2018-10-17T07:46:56.394Z,98085.09
2018-10-17T07:49:26.175Z,98082.03
2018-10-17T07:51:55.886Z,98078.05
2018-10-17T07:54:25.623Z,98079.89
2018-10-17T07:56:55.434Z,98077.78
2018-10-17T07:59:24.994Z,98087.58
2018-10-17T08:01:55.288Z,98086.38
2018-10-17T08:04:25.909Z,98083.20
2018-10-17T08:06:55.911Z,98080.37
2018-10-17T08:09:26.124Z,98081.48
2018-10-17T08:11:55.929Z,98088.09
2018-10-17T08:14:25.833Z,98088.77
2018-10-17T08:16:55.640Z,98087.56
2018-10-17T08:19:25.343Z,98085.79
2018-10-17T08:21:55.218Z,98093.83
2018-10-17T08:24:25.007Z,98092.52
2018-10-17T08:26:55.647Z,98084.88
2018-10-17T08:29:25.420Z,98080.65
2018-10-17T08:31:55.292Z,98087.13
2018-10-17T08:34:25.091Z,98079.34
2018-10-17T08:36:55.306Z,98079.17
2018-10-17T08:39:24.828Z,98081.04
2018-10-17T08:41:54.562Z,98082.75
2018-10-17T08:44:24.811Z,98083.35
2018-10-17T08:46:54.350Z,98085.77
2018-10-17T08:49:24.172Z,98079.06
2018-10-17T08:51:55.947Z,98085.51
2018-10-17T08:54:25.516Z,98083.08
2018-10-17T08:56:55.189Z,98082.80
2018-10-17T08:59:24.777Z,98073.14
2018-10-17T09:01:54.880Z,98079.77
2018-10-17T09:04:24.523Z,98085.42
2018-10-17T09:06:54.229Z,98084.06
2018-10-17T09:09:23.881Z,98087.39
2018-10-17T09:11:53.868Z,98079.55
2018-10-17T09:14:23.421Z,98080.89
2018-10-17T09:16:52.985Z,98083.47
2018-10-17T09:19:22.473Z,98075.03
2018-10-17T09:21:52.087Z,98074.84
2018-10-17T09:24:21.348Z,98081.23
2018-10-17T09:26:50.758Z,98085.59
2018-10-17T09:29:20.458Z,98073.97
2018-10-17T09:34:28.378Z,98070.48
2018-10-17T09:36:57.752Z,98065.41
2018-10-17T09:39:27.106Z,98060.00
2018-10-17T09:41:57.874Z,98068.25
2018-10-17T09:44:27.598Z,98069.11
2018-10-17T09:46:57.026Z,98066.20
2018-10-17T09:49:26.617Z,98070.14
2018-10-17T09:51:56.623Z,98070.80
2018-10-17T09:54:25.966Z,98062.90
2018-10-17T09:56:59.370Z,98065.28
2018-10-17T09:59:30.486Z,98058.47
2018-10-17T10:01:59.874Z,98058.56
2018-10-17T10:04:29.170Z,98058.75
2018-10-17T10:06:58.563Z,98056.51
2018-10-17T10:09:28.004Z,98053.86
2018-10-17T10:11:57.500Z,98044.75
2018-10-17T10:14:27.029Z,98050.38
2018-10-17T10:16:56.608Z,98052.39
2018-10-17T10:19:26.011Z,98055.12
2018-10-17T10:21:55.640Z,98051.06
2018-10-17T10:24:25.174Z,98045.75
2018-10-17T10:26:54.817Z,98044.52
2018-10-17T10:29:24.379Z,98046.98
2018-10-17T10:31:54.062Z,98046.62
2018-10-17T10:34:23.667Z,98039.52
2018-10-17T10:36:53.436Z,98042.55
2018-10-17T10:39:23.792Z,98030.58
2018-10-17T10:41:53.307Z,98032.01
2018-10-17T10:44:22.987Z,98031.58
2018-10-17T10:46:52.700Z,98026.47
2018-10-17T10:49:22.282Z,98026.59
2018-10-17T10:51:52.019Z,98033.32
2018-10-17T10:54:21.598Z,98033.80
2018-10-17T10:56:51.811Z,98026.17
2018-10-17T10:59:21.631Z,98025.70
2018-10-17T11:01:53.062Z,98029.47
2018-10-17T11:04:27.052Z,98023.03
2018-10-17T11:06:56.477Z,98020.16
2018-10-17T11:09:26.029Z,98016.09
2018-10-17T11:11:56.122Z,98012.91
2018-10-17T11:14:27.653Z,98013.56
2018-10-17T11:16:59.919Z,98008.30
2018-10-17T11:19:29.145Z,98008.88
2018-10-17T11:21:58.643Z,98001.67
2018-10-17T11:24:27.973Z,98002.05
2018-10-17T11:26:57.631Z,98000.15
2018-10-17T11:29:27.023Z,97997.51
2018-10-17T11:31:57.082Z,97998.80
2018-10-17T11:34:28.681Z,97997.08
2018-10-17T11:36:59.966Z,97996.45
2018-10-17T11:39:30.244Z,97996.50
2018-10-17T11:42:04.816Z,97988.47
2018-10-17T11:44:34.225Z,97983.25
2018-10-17T11:47:04.484Z,97975.80
2018-10-17T11:49:33.858Z,97975.38
2018-10-17T11:52:03.292Z,97979.35
2018-10-17T11:54:36.391Z,97977.11
2018-10-17T11:57:06.861Z,97977.45
2018-10-17T11:59:36.163Z,97967.06
2018-10-17T12:02:05.783Z,97976.81
2018-10-17T12:04:35.196Z,97968.44
2018-10-17T12:07:05.029Z,97965.52
2018-10-17T12:09:34.339Z,97962.64
2018-10-17T12:12:03.734Z,97959.75
2018-10-17T12:14:33.004Z,97954.38
2018-10-17T12:17:03.387Z,97955.02
2018-10-17T12:19:32.845Z,97953.91
2018-10-17T12:22:02.173Z,97942.73
2018-10-17T12:24:31.562Z,97938.17
2018-10-17T12:27:01.029Z,97940.64
2018-10-17T12:29:37.467Z,97944.50
2018-10-17T12:32:07.110Z,97934.97
2018-10-17T12:34:36.386Z,97926.45
2018-10-17T12:37:10.072Z,97929.73
2018-10-17T12:42:16.695Z,97925.40
2018-10-17T12:44:46.033Z,97922.16
2018-10-17T12:47:16.506Z,97916.57
2018-10-17T12:49:46.832Z,97920.70
2018-10-17T12:52:16.419Z,97924.15
2018-10-17T12:54:45.659Z,97918.02
2018-10-17T12:57:15.039Z,97916.09
2018-10-17T12:59:45.416Z,97917.92
2018-10-17T13:02:14.930Z,97922.70
2018-10-17T13:04:44.767Z,97924.72
2018-10-17T13:07:14.367Z,97917.68
2018-10-17T13:09:43.782Z,97919.77
2018-10-17T13:12:13.219Z,97919.12
2018-10-17T13:14:42.619Z,97913.06
2018-10-17T13:17:12.198Z,97919.52
2018-10-17T13:19:41.770Z,97909.12
2018-10-17T13:22:11.789Z,97908.41
2018-10-17T13:24:41.387Z,97906.50
2018-10-17T13:27:10.889Z,97901.86
2018-10-17T13:29:40.311Z,97906.00
2018-10-17T13:32:09.680Z,97902.46
2018-10-17T13:34:39.073Z,97905.28
2018-10-17T13:37:10.602Z,97897.43
2018-10-17T13:39:40.024Z,97900.61
2018-10-17T13:42:09.478Z,97896.16
2018-10-17T13:44:40.223Z,97892.13
2018-10-17T13:47:10.924Z,97889.69
2018-10-17T13:49:41.621Z,97899.48
2018-10-17T13:52:12.197Z,97889.36
2018-10-17T13:54:41.666Z,97892.87
2018-10-17T13:57:11.992Z,97896.11
2018-10-17T13:59:41.538Z,97896.55
2018-10-17T14:02:11.323Z,97894.14
2018-10-17T14:04:40.817Z,97892.88
2018-10-17T14:07:11.506Z,97895.98
2018-10-17T14:09:41.919Z,97891.63
2018-10-17T14:12:12.559Z,97885.44
2018-10-17T14:14:41.945Z,97893.89
2018-10-17T14:17:11.388Z,97884.91
2018-10-17T14:19:40.481Z,97886.12
2018-10-17T14:22:10.365Z,97886.92
2018-10-17T14:24:39.818Z,97887.59
2018-10-17T14:27:09.223Z,97889.20
2018-10-17T14:29:38.554Z,97886.12
2018-10-17T14:32:07.747Z,97887.78
2018-10-17T14:34:37.098Z,97887.25
2018-10-17T14:37:06.782Z,97884.67
2018-10-17T14:39:36.131Z,97890.77
2018-10-17T14:42:05.947Z,97883.48
2018-10-17T14:44:35.320Z,97886.91
2018-10-17T14:47:04.611Z,97884.66
2018-10-17T14:49:33.992Z,97885.81
2018-10-17T14:52:03.347Z,97883.26
2018-10-17T14:54:32.708Z,97887.01
2018-10-17T14:57:02.108Z,97887.28
2018-10-17T14:59:31.398Z,97883.32
2018-10-17T15:02:00.812Z,97896.73
2018-10-17T15:04:30.108Z,97889.23
2018-10-17T15:06:59.595Z,97892.28
2018-10-17T15:09:29.048Z,97880.25
2018-10-17T15:11:58.526Z,97883.21
2018-10-17T15:14:27.872Z,97882.52
2018-10-17T15:16:57.276Z,97879.33
2018-10-17T15:19:26.815Z,97887.27
2018-10-17T15:21:57.997Z,97883.44
2018-10-17T15:24:27.932Z,97888.84
2018-10-17T15:26:57.692Z,97880.36
2018-10-17T15:29:27.371Z,97884.73
2018-10-17T15:31:56.936Z,97883.90
2018-10-17T15:34:27.475Z,97885.02
2018-10-17T15:36:57.006Z,97887.53
2018-10-17T15:39:26.520Z,97879.20
2018-10-17T15:41:56.283Z,97879.69
2018-10-17T15:44:25.880Z,97880.99
2018-10-17T15:46:55.557Z,97884.09
2018-10-17T15:49:25.489Z,97880.92
2018-10-17T15:51:55.394Z,97881.35
2018-10-17T15:54:25.123Z,97884.84
2018-10-17T15:56:54.862Z,97885.95
2018-10-17T15:59:24.526Z,97880.84
2018-10-17T16:01:54.371Z,97881.13
2018-10-17T16:04:24.132Z,97887.18
2018-10-17T16:06:53.927Z,97888.27
2018-10-17T16:09:23.695Z,97883.97
2018-10-17T16:11:53.675Z,97878.06
2018-10-17T16:14:23.337Z,97880.30
2018-10-17T16:16:53.451Z,97879.28
2018-10-17T16:19:23.222Z,97881.74
2018-10-17T16:21:52.849Z,97885.21
2018-10-17T16:24:22.683Z,97883.11
2018-10-17T16:26:52.271Z,97878.45
2018-10-17T16:29:21.964Z,97884.39
2018-10-17T16:31:51.538Z,97892.64
2018-10-17T16:34:22.955Z,97898.66
2018-10-17T16:36:52.954Z,97896.83
2018-10-17T16:39:22.757Z,97892.85
2018-10-17T16:41:53.840Z,97898.67
2018-10-17T16:44:23.919Z,97901.63
2018-10-17T16:46:53.896Z,97907.22
2018-10-17T16:49:24.269Z,97908.52
2018-10-17T16:51:54.101Z,97917.02
2018-10-17T16:54:27.117Z,97925.17
2018-10-17T16:56:56.651Z,97918.00
2018-10-17T16:59:27.696Z,97916.95
2018-10-17T17:01:57.139Z,97914.94
2018-10-17T17:04:26.701Z,97914.21
2018-10-17T17:06:57.059Z,97923.64
2018-10-17T17:09:26.516Z,97921.64
2018-10-17T17:11:56.438Z,97928.44
2018-10-17T17:14:26.184Z,97926.34
2018-10-17T17:16:55.661Z,97925.28
2018-10-17T17:19:25.350Z,97939.81
2018-10-17T17:21:55.279Z,97932.31
2018-10-17T17:24:24.978Z,97938.22
2018-10-17T17:26:55.425Z,97931.55
2018-10-17T17:29:29.657Z,97937.97
2018-10-17T17:31:58.991Z,97937.71
2018-10-17T17:34:28.471Z,97941.70
2018-10-17T17:37:00.657Z,97941.73
2018-10-17T17:39:29.957Z,97945.50
2018-10-17T17:42:01.631Z,97954.41
2018-10-17T17:44:31.117Z,97947.69
2018-10-17T17:47:00.436Z,97943.41
2018-10-17T17:49:30.187Z,97949.03
2018-10-17T17:51:59.794Z,97952.27
2018-10-17T17:54:30.107Z,97949.06
2018-10-17T17:57:02.919Z,97945.28
2018-10-17T17:59:33.348Z,97958.44
2018-10-17T18:02:02.735Z,97956.55
2018-10-17T18:04:32.051Z,97952.80
2018-10-17T18:07:01.457Z,97959.75
2018-10-17T18:09:30.776Z,97960.02
2018-10-17T18:12:00.097Z,97966.42
2018-10-17T18:14:29.434Z,97961.34
2018-10-17T18:16:58.791Z,97966.62
2018-10-17T18:19:28.166Z,97968.19
2018-10-17T18:21:57.614Z,97974.31
2018-10-17T18:24:26.925Z,97971.89
2018-10-17T18:26:56.358Z,97974.34
2018-10-17T18:29:25.855Z,97976.99
2018-10-17T18:31:55.379Z,97975.07
2018-10-17T18:34:24.901Z,97976.41
2018-10-17T18:36:54.265Z,97974.52
2018-10-17T18:39:23.858Z,97983.60
2018-10-17T18:41:53.215Z,97980.33
2018-10-17T18:44:22.584Z,97990.75
2018-10-17T18:46:51.923Z,97991.28
2018-10-17T18:49:22.106Z,97996.07
2018-10-17T18:51:51.590Z,97990.36
2018-10-17T18:54:21.182Z,97997.29
2018-10-17T18:56:51.265Z,97996.00
2018-10-17T18:59:20.764Z,97995.50
2018-10-17T19:01:52.221Z,98003.25
2018-10-17T19:04:21.625Z,98003.00
2018-10-17T19:06:51.090Z,98001.38
2018-10-17T19:09:20.484Z,98005.11
2018-10-17T19:11:49.837Z,98005.67
2018-10-17T19:14:19.122Z,98013.41
2018-10-17T19:16:48.536Z,98010.17
2018-10-17T19:19:20.940Z,98012.47
2018-10-17T19:21:50.323Z,98021.50
2018-10-17T19:24:19.688Z,98019.07
2018-10-17T19:26:49.075Z,98024.36
2018-10-17T19:29:18.427Z,98022.50
2018-10-17T19:31:47.842Z,98018.39
2018-10-17T19:34:17.097Z,98021.83
2018-10-17T19:36:46.423Z,98023.89
2018-10-17T19:39:17.784Z,98022.54
2018-10-17T19:41:47.117Z,98022.78
2018-10-17T19:44:16.373Z,98029.92
2018-10-17T19:46:46.121Z,98030.96
2018-10-17T19:49:15.467Z,98034.03
2018-10-17T19:51:44.850Z,98034.26
2018-10-17T19:54:14.159Z,98030.26
2018-10-17T19:56:43.482Z,98030.26
2018-10-17T19:59:12.919Z,98032.03
2018-10-17T20:01:47.444Z,98040.78
2018-10-17T20:04:16.908Z,98029.80
2018-10-17T20:06:46.246Z,98035.39
2018-10-17T20:09:15.636Z,98033.53
2018-10-17T20:11:44.975Z,98033.52
2018-10-17T20:14:14.345Z,98039.45
2018-10-17T20:16:44.597Z,98043.59
2018-10-17T20:19:13.958Z,98042.97
2018-10-17T20:21:43.502Z,98038.92
2018-10-17T20:24:15.432Z,98041.78
2018-10-17T20:26:44.989Z,98041.05
2018-10-17T20:29:19.396Z,98040.19
2018-10-17T20:31:54.851Z,98040.40
2018-10-17T20:34:24.160Z,98040.59
2018-10-17T20:36:53.747Z,98043.92
2018-10-17T20:39:23.258Z,98045.78
2018-10-17T20:41:52.693Z,98046.23
2018-10-17T20:44:22.986Z,98046.52
2018-10-17T20:46:52.373Z,98051.56
2018-10-17T20:49:21.985Z,98055.06
2018-10-17T20:51:51.255Z,98051.05
2018-10-17T20:54:20.557Z,98054.16
2018-10-17T20:56:49.924Z,98053.64
2018-10-17T20:59:19.207Z,98053.54
2018-10-17T21:01:48.532Z,98053.17
2018-10-17T21:04:17.863Z,98053.05
2018-10-17T21:06:47.266Z,98055.16
2018-10-17T21:09:16.556Z,98050.56
2018-10-17T21:11:45.794Z,98051.31
2018-10-17T21:14:15.146Z,98052.39
2018-10-17T21:16:44.429Z,98055.39
2018-10-17T21:19:13.791Z,98058.58
2018-10-17T21:21:43.156Z,98059.10
2018-10-17T21:24:12.994Z,98058.34
2018-10-17T21:26:42.387Z,98060.73
2018-10-17T21:29:11.825Z,98065.53
2018-10-17T21:31:41.492Z,98061.64
2018-10-17T21:34:10.935Z,98055.27
2018-10-17T21:36:40.553Z,98059.03
2018-10-17T21:39:11.945Z,98056.99
2018-10-17T21:41:41.350Z,98062.59
2018-10-17T21:44:11.594Z,98055.39
2018-10-17T21:46:41.278Z,98051.78
2018-10-17T21:49:10.917Z,98055.73
2018-10-17T21:51:40.767Z,98053.64
2018-10-17T21:54:10.233Z,98051.58
2018-10-17T21:56:39.606Z,98050.14
2018-10-17T21:59:09.152Z,98046.61
2018-10-17T22:01:38.504Z,98041.77
2018-10-17T22:04:07.899Z,98043.02
2018-10-17T22:06:37.318Z,98047.22
2018-10-17T22:09:09.837Z,98040.02
2018-10-17T22:11:39.263Z,98044.50
2018-10-17T22:14:08.749Z,98041.46
2018-10-17T22:16:43.216Z,98039.78
2018-10-17T22:19:12.949Z,98045.31
2018-10-17T22:21:42.081Z,98043.63
2018-10-17T22:24:11.599Z,98038.99
2018-10-17T22:26:41.031Z,98044.44
2018-10-17T22:29:10.482Z,98046.06
2018-10-17T22:31:39.850Z,98044.44
2018-10-17T22:34:09.248Z,98038.97
2018-10-17T22:36:38.659Z,98041.43
2018-10-17T22:39:13.790Z,98047.31
2018-10-17T22:41:43.873Z,98045.86
2018-10-17T22:44:13.390Z,98047.91
2018-10-17T22:46:43.374Z,98052.83
2018-10-17T22:49:12.768Z,98049.81
2018-10-17T22:51:42.231Z,98053.81
2018-10-17T22:54:11.777Z,98053.22
2018-10-17T22:56:41.293Z,98053.84
2018-10-17T22:59:10.860Z,98048.94
2018-10-17T23:01:40.422Z,98044.95
2018-10-17T23:04:09.998Z,98045.88
2018-10-17T23:06:39.453Z,98043.41
2018-10-17T23:09:12.648Z,98039.36
2018-10-17T23:11:42.883Z,98040.49
2018-10-17T23:14:12.595Z,98041.56
2018-10-17T23:16:42.611Z,98041.66
2018-10-17T23:19:12.543Z,98043.70
2018-10-17T23:21:42.365Z,98033.25
2018-10-17T23:24:11.979Z,98031.83
2018-10-17T23:26:41.485Z,98032.29
2018-10-17T23:29:11.084Z,98038.95
2018-10-17T23:31:40.527Z,98037.00
2018-10-17T23:34:09.918Z,98036.31
2018-10-17T23:36:39.281Z,98035.76
2018-10-17T23:39:10.192Z,98050.14
2018-10-17T23:41:40.442Z,98030.47
2018-10-17T23:44:09.881Z,98027.64
2018-10-17T23:46:39.125Z,98036.50
2018-10-17T23:49:08.475Z,98035.83
2018-10-17T23:51:37.803Z,98030.17
2018-10-17T23:54:07.203Z,98034.69
2018-10-17T23:56:36.458Z,98038.00
2018-10-17T23:59:05.778Z,98035.34
